Time;durP1;ratioP1;P1;durP2;ratioP2;P2;SDS_P1;SDS_P2;PMS_P1;PMS_P2;Temp;Humidity;BMP_temperature;BMP_pressure;BME280_temperature;BME280_humidity;BME280_pressure;Samples;Min_cycle;Max_cycle;Signal;HPM_P1;HPM_P2
2023/01/12 00:01:10;;;;;;;4.43;1.23;;;;;;;4.79;100.00;99148.44;5018537;28;20450;-80
2023/01/12 00:03:36;;;;;;;3.92;1.10;;;;;;;4.65;100.00;99118.69;5014053;28;20474;-80
2023/01/12 00:06:06;;;;;;;5.07;1.48;;;;;;;4.79;100.00;99126.13;5031440;28;20022;-81
2023/01/12 00:08:33;;;;;;;12.35;1.45;;;;;;;4.77;100.00;99123.63;5015410;28;20025;-81
2023/01/12 00:10:58;;;;;;;3.55;0.95;;;;;;;4.76;100.00;99124.59;5035691;28;20021;-80
2023/01/12 00:13:23;;;;;;;11.20;1.52;;;;;;;4.55;100.00;99090.13;5036117;28;20517;-79
2023/01/12 00:18:33;;;;;;;3.97;1.00;;;;;;;4.94;100.00;99135.25;5031417;28;20033;-79
2023/01/12 00:20:58;;;;;;;5.38;1.10;;;;;;;5.01;100.00;99133.63;5012184;28;20021;-79
2023/01/12 00:23:25;;;;;;;7.43;1.20;;;;;;;5.14;100.00;99135.03;5016254;28;20093;-80
2023/01/12 00:25:51;;;;;;;10.93;1.55;;;;;;;5.18;100.00;99137.22;5033538;28;20066;-79
2023/01/12 00:28:17;;;;;;;7.60;1.10;;;;;;;5.27;100.00;99136.28;5032957;28;20033;-80
2023/01/12 00:30:42;;;;;;;7.18;1.30;;;;;;;5.30;100.00;99132.44;5015269;28;20037;-80
2023/01/12 00:33:07;;;;;;;7.60;0.85;;;;;;;5.38;100.00;99126.25;5015970;28;20164;-79
2023/01/12 00:35:34;;;;;;;8.60;1.40;;;;;;;5.38;100.00;99102.09;5017101;28;20022;-80
2023/01/12 00:38:00;;;;;;;5.18;0.80;;;;;;;5.42;100.00;99104.31;5019548;28;20024;-79
2023/01/12 00:40:25;;;;;;;3.15;1.17;;;;;;;5.34;100.00;99082.78;5027079;28;20037;-79
2023/01/12 00:45:34;;;;;;;5.38;1.15;;;;;;;5.46;100.00;99111.00;5034954;28;20099;-79
2023/01/12 00:47:59;;;;;;;7.88;1.23;;;;;;;5.38;100.00;99115.53;5015551;28;20045;-79
2023/01/12 00:50:25;;;;;;;3.88;1.33;;;;;;;5.18;100.00;99097.00;5016445;28;20386;-79
2023/01/12 00:52:50;;;;;;;7.38;1.30;;;;;;;5.16;100.00;99106.19;5015911;28;20025;-79
2023/01/12 00:55:15;;;;;;;3.25;1.08;;;;;;;5.00;100.00;99097.09;5017126;28;20399;-79
2023/01/12 00:57:41;;;;;;;9.38;1.17;;;;;;;4.97;100.00;99092.03;5024126;28;20455;-80
2023/01/12 01:00:07;;;;;;;9.65;0.90;;;;;;;4.99;100.00;99099.94;5016532;28;20171;-82
2023/01/12 01:02:32;;;;;;;4.60;0.60;;;;;;;5.01;100.00;99119.38;5011176;28;20029;-80
2023/01/12 01:04:58;;;;;;;5.97;1.00;;;;;;;4.92;100.00;99106.94;5032339;28;20021;-80
2023/01/12 01:07:23;;;;;;;7.25;0.80;;;;;;;4.97;100.00;99105.44;5014996;28;20051;-80
2023/01/12 01:09:49;;;;;;;6.65;1.65;;;;;;;4.91;100.00;99106.09;5010952;28;20079;-80
2023/01/12 01:12:15;;;;;;;7.63;0.98;;;;;;;5.02;100.00;99123.75;5032660;28;20061;-82
2023/01/12 01:14:40;;;;;;;6.30;1.00;;;;;;;4.92;100.00;99099.72;5026856;28;20501;-80
2023/01/12 01:17:06;;;;;;;10.88;0.98;;;;;;;4.98;100.00;99095.59;5015538;28;20020;-79
2023/01/12 01:19:31;;;;;;;11.93;2.05;;;;;;;4.98;100.00;99099.09;5009783;28;20025;-80
2023/01/12 01:21:56;;;;;;;13.50;1.67;;;;;;;4.99;100.00;99110.66;5016241;28;20104;-78
2023/01/12 01:24:22;;;;;;;5.40;1.00;;;;;;;4.84;100.00;99081.75;5024636;28;20025;-81
2023/01/12 01:26:49;;;;;;;3.03;1.05;;;;;;;4.95;100.00;99083.34;5024315;28;20021;-80
2023/01/12 01:29:14;;;;;;;6.57;1.85;;;;;;;5.28;100.00;99105.75;5012848;28;20025;-81
2023/01/12 01:31:40;;;;;;;6.32;1.05;;;;;;;5.41;100.00;99107.97;5013699;28;20085;-79
2023/01/12 01:34:05;;;;;;;7.10;1.20;;;;;;;5.42;100.00;99101.63;5018474;28;20441;-80
2023/01/12 01:36:31;;;;;;;9.45;0.77;;;;;;;5.54;100.00;99104.00;5013511;28;20121;-80
2023/01/12 01:38:56;;;;;;;4.43;0.68;;;;;;;5.57;100.00;99100.97;5015069;28;20028;-80
2023/01/12 01:41:28;;;;;;;7.35;1.20;;;;;;;5.62;100.00;99117.44;5013006;28;20060;-79
2023/01/12 01:44:05;;;;;;;2.42;0.82;;;;;;;5.57;100.00;99103.66;5013167;28;20125;-80
2023/01/12 01:46:41;;;;;;;6.68;0.93;;;;;;;5.60;100.00;99108.69;5031949;28;20037;-80
2023/01/12 01:49:43;;;;;;;5.78;1.08;;;;;;;5.59;100.00;99121.28;5007910;28;20030;-80
2023/01/12 01:52:12;;;;;;;6.90;0.95;;;;;;;5.61;100.00;99121.97;5009406;28;20037;-80
2023/01/12 01:54:51;;;;;;;4.75;1.27;;;;;;;5.49;100.00;99096.44;5004803;28;20029;-79
2023/01/12 01:57:17;;;;;;;2.90;1.05;;;;;;;5.61;100.00;99115.78;5030293;28;20116;-80
2023/01/12 01:59:49;;;;;;;3.83;0.90;;;;;;;5.51;100.00;99098.97;5011489;28;20053;-80
2023/01/12 02:02:15;;;;;;;6.38;1.05;;;;;;;5.61;100.00;99108.53;5032714;28;20033;-80
2023/01/12 02:04:41;;;;;;;8.77;1.25;;;;;;;5.29;100.00;99058.28;5026568;28;20045;-80
2023/01/12 02:07:07;;;;;;;4.93;0.90;;;;;;;5.53;100.00;99088.88;4996263;28;20096;-80
2023/01/12 02:09:33;;;;;;;10.48;2.13;;;;;;;5.70;100.00;99120.13;5009392;28;20049;-80
2023/01/12 02:17:53;;;;;;;9.40;0.93;;;;;;;5.69;100.00;99097.00;5035479;28;20095;-81
2023/01/12 02:20:41;;;;;;;3.05;0.93;;;;;;;5.69;100.00;99092.47;5032054;28;20120;-80
2023/01/12 02:23:44;;;;;;;5.07;1.05;;;;;;;5.72;100.00;99093.97;5027892;28;20026;-81
2023/01/12 02:26:24;;;;;;;4.20;0.60;;;;;;;5.74;100.00;99088.41;5032160;28;20414;-80
2023/01/12 02:29:05;;;;;;;3.30;1.08;;;;;;;5.74;100.00;99073.19;5025487;28;20079;-80
2023/01/12 02:32:09;;;;;;;3.92;0.93;;;;;;;5.73;100.00;99079.53;5010609;28;20121;-79
2023/01/12 02:35:16;;;;;;;6.68;1.02;;;;;;;5.82;100.00;99086.59;5031399;28;20124;-80
2023/01/12 02:38:02;;;;;;;3.10;0.70;;;;;;;5.84;100.00;99062.25;4994795;28;20034;-80
2023/01/12 02:40:42;;;;;;;2.95;0.80;;;;;;;5.97;100.00;99062.63;5028886;28;20475;-79
2023/01/12 02:43:23;;;;;;;7.05;0.90;;;;;;;5.95;100.00;99040.50;5027538;28;20029;-79
2023/01/12 02:46:10;;;;;;;9.90;0.95;;;;;;;6.13;100.00;99056.41;5035710;28;20112;-81
2023/01/12 02:48:39;;;;;;;6.90;1.10;;;;;;;6.14;100.00;99053.56;5016339;28;20021;-79
2023/01/12 02:51:10;;;;;;;;;;;;;;;6.20;100.00;99049.38;5035660;28;20108;-80
2023/01/12 02:56:06;;;;;;;6.65;0.80;;;;;;;6.23;100.00;99040.13;5056925;28;20041;-68
2023/01/12 02:58:35;;;;;;;5.30;1.73;;;;;;;6.21;100.00;99026.88;5055016;28;20025;-68
2023/01/12 03:01:03;;;;;;;8.70;1.10;;;;;;;6.18;100.00;99037.94;5036035;28;20029;-68
2023/01/12 03:03:29;;;;;;;6.97;0.80;;;;;;;6.21;100.00;99037.63;5037919;28;20051;-68
2023/01/12 03:05:58;;;;;;;7.07;1.08;;;;;;;6.22;100.00;99044.66;5038661;28;20481;-68
2023/01/12 03:08:27;;;;;;;4.38;0.77;;;;;;;6.23;100.00;99027.53;5034902;28;20393;-68
2023/01/12 03:11:07;;;;;;;;;;;;;;;6.25;100.00;99028.22;5060941;28;20017;-68
2023/01/12 03:13:34;;;;;;;;;;;;;;;6.21;100.00;99036.78;5036801;28;20441;-68
2023/01/12 03:16:02;;;;;;;4.63;1.00;;;;;;;6.20;100.00;99037.78;5038523;28;19917;-70
2023/01/12 03:18:33;;;;;;;4.97;0.70;;;;;;;6.20;100.00;99025.19;5035285;28;20030;-68
2023/01/12 03:21:03;;;;;;;3.50;0.80;;;;;;;6.15;100.00;99030.22;5032932;28;20025;-69
2023/01/12 03:23:40;;;;;;;4.05;0.73;;;;;;;6.11;100.00;99035.13;5051322;28;20025;-70
2023/01/12 03:26:10;;;;;;;4.53;1.08;;;;;;;6.12;100.00;99031.41;5060892;28;20131;-68
2023/01/12 03:28:39;;;;;;;8.10;1.38;;;;;;;6.13;100.00;99029.56;5043542;28;20069;-68
2023/01/12 03:31:09;;;;;;;4.70;1.45;;;;;;;6.15;100.00;99016.81;5016000;28;20018;-68
2023/01/12 03:33:36;;;;;;;2.45;0.93;;;;;;;6.17;100.00;99028.22;5053380;28;20493;-68
2023/01/12 03:36:07;;;;;;;8.63;0.95;;;;;;;6.23;100.00;99024.00;5034319;28;20026;-68
2023/01/12 03:39:17;;;;;;;4.38;0.90;;;;;;;6.23;100.00;99032.91;5051358;28;20029;-68
2023/01/12 03:41:52;;;;;;;5.03;1.20;;;;;;;6.22;100.00;99025.03;5019519;28;20412;-68
2023/01/12 03:44:29;;;;;;;2.95;0.70;;;;;;;6.22;100.00;99033.09;5048471;28;20021;-68
2023/01/12 03:47:00;;;;;;;5.80;0.80;;;;;;;6.23;100.00;99022.16;5068856;28;20029;-68
2023/01/12 03:49:42;;;;;;;5.18;0.95;;;;;;;6.28;100.00;99027.84;5060293;28;20028;-68
2023/01/12 03:52:11;;;;;;;4.50;1.20;;;;;;;6.26;100.00;99021.84;5051181;28;20033;-68
2023/01/12 03:54:38;;;;;;;5.47;1.77;;;;;;;6.28;100.00;99025.19;5037187;28;20314;-70
2023/01/12 03:57:07;;;;;;;7.35;1.00;;;;;;;6.31;100.00;99015.94;5028999;28;20025;-68
2023/01/12 03:59:33;;;;;;;5.97;1.15;;;;;;;6.31;100.00;99027.53;5033250;28;20033;-68
2023/01/12 04:01:58;;;;;;;3.40;1.20;;;;;;;6.30;100.00;99009.72;5043001;28;20041;-68
2023/01/12 04:04:24;;;;;;;4.00;0.80;;;;;;;6.28;100.00;99013.59;5008332;28;20032;-68
2023/01/12 04:06:49;;;;;;;10.32;1.40;;;;;;;6.27;100.00;99015.44;5024002;28;20026;-69
2023/01/12 04:09:14;;;;;;;10.45;1.17;;;;;;;6.29;100.00;99010.75;5034308;28;20030;-68
2023/01/12 04:14:24;;;;;;;3.67;1.17;;;;;;;6.29;100.00;99007.22;5038965;28;20436;-70
2023/01/12 04:16:49;;;;;;;9.13;1.30;;;;;;;6.33;100.00;99011.22;5049938;28;20029;-71
2023/01/12 04:19:14;;;;;;;7.15;0.82;;;;;;;6.34;100.00;98997.63;5038352;28;20160;-70
2023/01/12 04:24:25;;;;;;;7.68;0.93;;;;;;;6.37;100.00;99007.22;5046898;28;20024;-70
2023/01/12 04:26:50;;;;;;;7.25;0.90;;;;;;;6.34;100.00;98999.47;5034049;28;20025;-70
2023/01/12 04:29:16;;;;;;;10.70;1.52;;;;;;;6.33;100.00;98993.25;5029680;28;20022;-70
2023/01/12 04:31:41;;;;;;;5.47;1.00;;;;;;;6.34;100.00;98991.41;5030344;28;20025;-68
2023/01/12 04:34:06;;;;;;;6.78;1.55;;;;;;;6.34;100.00;98988.72;5049947;28;20021;-68
2023/01/12 04:36:32;;;;;;;6.97;1.27;;;;;;;6.33;100.00;98979.81;5042533;28;20469;-68
2023/01/12 04:38:57;;;;;;;5.07;1.27;;;;;;;6.33;100.00;98985.19;5045998;28;20040;-68
2023/01/12 04:41:22;;;;;;;6.70;1.10;;;;;;;6.31;100.00;98984.56;5031207;28;20029;-68
2023/01/12 04:43:47;;;;;;;5.20;0.90;;;;;;;6.33;100.00;98981.69;5057545;28;20025;-68
2023/01/12 04:46:13;;;;;;;8.48;1.20;;;;;;;6.32;100.00;98986.22;5062552;28;20026;-69
2023/01/12 04:48:39;;;;;;;11.50;0.98;;;;;;;6.34;100.00;98969.91;5031638;28;20062;-68
2023/01/12 04:51:05;;;;;;;5.53;1.00;;;;;;;6.38;100.00;98976.63;5058195;28;20029;-68
2023/01/12 04:53:31;;;;;;;10.55;1.42;;;;;;;6.38;100.00;98967.72;5040451;28;20523;-68
2023/01/12 04:55:57;;;;;;;12.13;1.15;;;;;;;6.36;100.00;98965.19;5034961;28;20037;-68
2023/01/12 04:58:23;;;;;;;4.60;1.17;;;;;;;6.33;100.00;98970.94;5025903;28;20554;-69
2023/01/12 05:00:49;;;;;;;8.23;0.88;;;;;;;6.34;100.00;98969.91;5019375;28;20106;-67
2023/01/12 05:03:15;;;;;;;10.63;1.33;;;;;;;6.32;100.00;98969.25;5050859;28;20017;-67
2023/01/12 05:05:41;;;;;;;4.53;1.52;;;;;;;6.31;100.00;98963.06;5033360;28;20041;-67
2023/01/12 05:10:54;;;;;;;7.95;1.00;;;;;;;6.38;100.00;98973.09;5022202;28;20044;-67
2023/01/12 05:13:21;;;;;;;7.93;0.90;;;;;;;6.44;100.00;98975.94;5045617;28;20040;-67
2023/01/12 05:15:46;;;;;;;5.25;1.25;;;;;;;6.50;100.00;98969.03;5032349;28;20040;-67
2023/01/12 05:18:12;;;;;;;4.32;1.10;;;;;;;6.56;100.00;98961.13;5032314;28;20021;-67
2023/01/12 05:20:37;;;;;;;10.20;0.85;;;;;;;6.64;100.00;98962.94;5047017;28;20025;-67
2023/01/12 05:23:03;;;;;;;8.93;1.30;;;;;;;6.72;100.00;98967.44;5037618;28;20116;-67
2023/01/12 05:25:31;;;;;;;10.95;1.42;;;;;;;6.83;100.00;98960.84;5040827;28;20032;-67
2023/01/12 05:27:57;;;;;;;7.80;1.00;;;;;;;6.89;100.00;98957.44;5029875;28;20021;-67
2023/01/12 05:30:27;;;;;;;10.40;0.70;;;;;;;7.02;100.00;98955.00;5032599;28;20045;-67
2023/01/12 05:32:52;;;;;;;7.78;0.90;;;;;;;7.02;100.00;98955.00;5021738;28;20488;-67
2023/01/12 05:35:18;;;;;;;11.80;1.30;;;;;;;7.11;100.00;98943.19;5032117;28;20033;-67
2023/01/12 05:37:44;;;;;;;9.38;1.13;;;;;;;7.13;100.00;98940.34;5053458;28;20033;-68
2023/01/12 05:40:10;;;;;;;7.50;0.98;;;;;;;7.16;100.00;98943.50;5027050;28;20025;-67
2023/01/12 05:45:20;;;;;;;6.68;1.02;;;;;;;7.22;100.00;98945.47;5022770;28;20032;-67
2023/01/12 05:47:46;;;;;;;10.55;1.42;;;;;;;7.21;100.00;98942.97;5029895;28;20022;-68
2023/01/12 05:50:11;;;;;;;9.57;1.15;;;;;;;7.27;100.00;98936.03;5040192;28;20030;-68
2023/01/12 05:52:37;;;;;;;4.93;0.80;;;;;;;7.21;100.00;98942.97;5054778;28;20029;-68
2023/01/12 05:55:03;;;;;;;12.02;1.25;;;;;;;7.17;100.00;98947.03;5027479;28;20017;-68
2023/01/12 05:57:30;;;;;;;3.30;1.00;;;;;;;7.17;100.00;98945.16;5044070;28;20069;-68
2023/01/12 05:59:55;;;;;;;6.63;1.08;;;;;;;7.21;100.00;98933.03;5023324;28;20492;-68
2023/01/12 06:02:21;;;;;;;4.95;0.77;;;;;;;7.23;100.00;98939.09;5017456;28;20030;-68
2023/01/12 06:04:47;;;;;;;11.68;1.55;;;;;;;7.20;100.00;98936.75;5025136;28;20021;-68
2023/01/12 06:07:14;;;;;;;9.65;1.02;;;;;;;7.21;100.00;98927.66;5026740;28;20096;-67
2023/01/12 06:09:39;;;;;;;8.07;1.40;;;;;;;7.20;100.00;98925.13;5039399;28;20481;-67
2023/01/12 06:14:50;;;;;;;4.72;0.90;;;;;;;7.22;100.00;98917.72;5038240;28;20068;-68
2023/01/12 06:17:15;;;;;;;6.55;1.00;;;;;;;7.16;100.00;98913.91;5054864;28;20476;-68
2023/01/12 06:19:41;;;;;;;9.05;1.27;;;;;;;7.21;100.00;98908.81;5023808;28;20415;-68
2023/01/12 06:22:07;;;;;;;6.72;1.08;;;;;;;7.28;100.00;98897.34;5031394;28;20116;-67
2023/01/12 06:24:32;;;;;;;7.05;1.15;;;;;;;7.29;100.00;98888.25;5039293;28;20527;-68
2023/01/12 06:26:59;;;;;;;6.63;1.17;;;;;;;7.35;100.00;98892.91;5035669;28;20033;-65
2023/01/12 06:29:24;;;;;;;5.72;1.38;;;;;;;7.34;100.00;98904.72;5034079;28;20036;-66
2023/01/12 06:31:50;;;;;;;5.70;1.40;;;;;;;7.31;100.00;98903.22;5058912;28;20025;-66
2023/01/12 06:34:15;;;;;;;3.45;1.00;;;;;;;7.30;100.00;98906.06;5037677;28;20109;-66
2023/01/12 06:36:41;;;;;;;7.15;1.20;;;;;;;7.23;100.00;98909.50;5028533;28;20491;-66
2023/01/12 06:39:06;;;;;;;9.85;1.27;;;;;;;7.27;100.00;98893.81;5052812;28;20025;-66
2023/01/12 06:44:18;;;;;;;7.75;1.20;;;;;;;7.23;100.00;98893.34;5030270;28;20087;-66
2023/01/12 06:46:44;;;;;;;8.93;1.23;;;;;;;7.23;100.00;98898.72;5051577;28;20423;-66
2023/01/12 06:49:09;;;;;;;8.38;1.38;;;;;;;7.23;100.00;98890.66;5058525;28;20087;-66
2023/01/12 06:51:35;;;;;;;4.60;1.02;;;;;;;7.22;100.00;98904.28;5047130;28;20053;-66
2023/01/12 06:54:00;;;;;;;5.30;1.05;;;;;;;7.24;100.00;98907.63;5032292;28;20056;-66
2023/01/12 06:56:26;;;;;;;10.35;1.63;;;;;;;7.23;100.00;98908.63;5046018;28;20053;-62
2023/01/12 06:58:51;;;;;;;8.52;1.45;;;;;;;7.21;100.00;98914.22;5036684;28;20079;-62
2023/01/12 07:01:17;;;;;;;8.02;1.27;;;;;;;7.21;100.00;98914.22;5050693;28;20056;-62
2023/01/12 07:03:43;;;;;;;11.38;1.38;;;;;;;7.26;100.00;98908.28;5029299;28;20029;-62
2023/01/12 07:06:08;;;;;;;7.03;1.00;;;;;;;7.24;100.00;98899.56;5050055;28;20055;-62
2023/01/12 07:08:34;;;;;;;6.60;0.82;;;;;;;7.25;100.00;98912.81;5031659;28;20044;-62
2023/01/12 07:11:06;;;;;;;12.30;1.08;;;;;;;7.29;100.00;98901.72;5024389;28;20056;-62
2023/01/12 07:13:33;;;;;;;7.00;1.05;;;;;;;7.28;100.00;98905.41;5022611;28;20030;-62
2023/01/12 07:16:00;;;;;;;11.00;1.02;;;;;;;7.24;100.00;98894.19;5028499;28;20026;-62
2023/01/12 07:18:26;;;;;;;7.30;1.50;;;;;;;7.23;100.00;98905.94;5027906;28;20029;-62
2023/01/12 07:20:52;;;;;;;10.55;1.55;;;;;;;7.27;100.00;98909.97;5056409;28;20048;-62
2023/01/12 07:23:18;;;;;;;8.90;1.58;;;;;;;7.32;100.00;98902.19;5048444;28;20025;-62
2023/01/12 07:25:44;;;;;;;7.18;1.00;;;;;;;7.38;100.00;98909.53;5028643;28;20135;-63
2023/01/12 07:28:09;;;;;;;11.80;1.25;;;;;;;7.40;100.00;98906.66;5045192;28;20033;-62
2023/01/12 07:30:34;;;;;;;6.90;1.10;;;;;;;7.39;100.00;98908.53;5049887;28;20495;-62
2023/01/12 07:33:11;;;;;;;4.18;1.35;;;;;;;7.39;100.00;98916.59;5042036;28;20017;-63
2023/01/12 07:35:38;;;;;;;5.93;1.38;;;;;;;7.42;100.00;98904.63;5037698;28;20060;-62
2023/01/12 07:38:04;;;;;;;8.75;1.15;;;;;;;7.48;100.00;98911.97;5030629;28;20022;-62
2023/01/12 07:40:30;;;;;;;5.13;1.10;;;;;;;7.52;100.00;98916.00;5040465;28;20034;-63
2023/01/12 07:43:16;;;;;;;9.55;1.20;;;;;;;7.48;100.00;98914.66;5038560;28;20056;-63
2023/01/12 07:45:41;;;;;;;4.85;1.10;;;;;;;7.49;100.00;98913.66;5029552;28;20024;-63
2023/01/12 07:48:07;;;;;;;5.40;1.00;;;;;;;7.56;100.00;98911.91;5028474;28;20374;-63
2023/01/12 07:50:34;;;;;;;4.07;0.70;;;;;;;7.61;100.00;98908.69;5036379;28;20029;-63
2023/01/12 07:53:00;;;;;;;8.45;1.30;;;;;;;7.65;100.00;98901.91;5048221;28;20034;-63
2023/01/12 07:55:26;;;;;;;6.47;1.08;;;;;;;7.68;100.00;98901.56;5029855;28;20024;-63
2023/01/12 07:58:00;;;;;;;5.32;0.80;;;;;;;7.69;100.00;98904.06;5032008;28;20108;-63
2023/01/12 08:00:26;;;;;;;5.88;0.90;;;;;;;7.72;100.00;98902.00;5049595;28;20036;-63
2023/01/12 08:02:54;;;;;;;6.40;1.23;;;;;;;7.78;100.00;98895.88;5060524;28;20020;-63
2023/01/12 08:05:21;;;;;;;3.22;0.82;;;;;;;7.79;100.00;98893.03;5045584;28;20053;-63
2023/01/12 08:07:47;;;;;;;8.35;0.65;;;;;;;7.81;100.00;98898.25;5042965;28;20025;-63
2023/01/12 08:10:13;;;;;;;8.82;1.13;;;;;;;7.78;100.00;98891.38;5039457;28;20033;-62
2023/01/12 08:12:40;;;;;;;11.45;1.38;;;;;;;7.81;100.00;98891.00;5021304;28;20116;-63
2023/01/12 08:15:06;;;;;;;3.58;0.75;;;;;;;7.86;100.00;98893.16;5022181;28;20569;-62
2023/01/12 08:17:39;;;;;;;5.72;1.40;;;;;;;7.88;100.00;98901.84;5021135;28;20087;-62
2023/01/12 08:20:12;;;;;;;4.60;1.38;;;;;;;7.95;100.00;98889.31;5044479;28;20572;-63
2023/01/12 08:22:42;;;;;;;10.25;1.77;;;;;;;7.95;100.00;98888.50;5036075;28;20088;-63
2023/01/12 08:25:20;;;;;;;3.60;1.00;;;;;;;7.96;100.00;98872.13;5033148;28;20025;-62
2023/01/12 08:27:50;;;;;;;10.18;1.30;;;;;;;7.96;100.00;98879.38;5037267;28;21289;-63
2023/01/12 08:30:19;;;;;;;8.63;1.42;;;;;;;8.00;100.00;98875.31;5025045;28;20370;-63
2023/01/12 08:32:45;;;;;;;7.72;1.00;;;;;;;7.97;100.00;98879.22;5028220;28;20067;-62
2023/01/12 08:35:15;;;;;;;8.38;0.95;;;;;;;7.97;100.00;98878.38;5035780;28;20050;-62
2023/01/12 08:37:41;;;;;;;3.92;0.82;;;;;;;8.01;100.00;98879.66;5025197;28;20477;-63
2023/01/12 08:40:08;;;;;;;9.30;1.52;;;;;;;8.05;100.00;98889.06;5021326;28;20029;-62
2023/01/12 08:42:33;;;;;;;7.85;0.80;;;;;;;8.08;100.00;98876.06;5021408;28;20029;-62
2023/01/12 08:44:59;;;;;;;5.13;1.13;;;;;;;8.08;100.00;98891.38;5043990;28;20022;-63
2023/01/12 08:47:27;;;;;;;5.75;0.75;;;;;;;8.07;100.00;98887.88;5025371;28;20024;-64
2023/01/12 08:49:58;;;;;;;5.93;0.90;;;;;;;8.07;100.00;98887.03;5042699;28;20438;-64
2023/01/12 08:52:24;;;;;;;3.95;0.70;;;;;;;8.07;100.00;98889.72;5027427;28;20033;-64
2023/01/12 08:54:50;;;;;;;5.35;1.00;;;;;;;8.03;100.00;98896.50;5136746;22;20053;-61
2023/01/12 08:57:15;;;;;;;5.85;1.35;;;;;;;8.03;100.00;98904.56;4996480;28;20022;-60
2023/01/12 08:59:41;;;;;;;8.23;0.93;;;;;;;7.97;100.00;98905.31;4996479;28;20029;-60
2023/01/12 09:02:10;;;;;;;7.95;1.00;;;;;;;7.97;100.00;98891.84;4997073;28;20033;-60
2023/01/12 09:04:38;;;;;;;11.55;1.00;;;;;;;7.91;100.00;98896.09;4997393;28;20023;-61
2023/01/12 09:07:04;;;;;;;6.53;0.90;;;;;;;7.91;100.00;98901.47;4969223;28;20030;-60
2023/01/12 09:09:29;;;;;;;8.20;1.33;;;;;;;7.90;100.00;98902.50;4993450;28;20389;-61
2023/01/12 09:11:55;;;;;;;7.93;1.45;;;;;;;7.92;100.00;98900.47;4992085;28;20112;-60
2023/01/12 09:14:20;;;;;;;5.53;1.10;;;;;;;7.86;100.00;98871.59;4973505;28;20053;-60
2023/01/12 09:16:46;;;;;;;6.22;1.20;;;;;;;8.03;100.00;98893.78;4969257;28;20120;-61
2023/01/12 09:19:11;;;;;;;6.57;1.25;;;;;;;8.07;100.00;98904.03;4994739;28;20027;-59
2023/01/12 09:21:39;;;;;;;6.85;1.00;;;;;;;8.12;100.00;98908.84;4971566;28;20091;-60
2023/01/12 09:24:05;;;;;;;9.07;1.00;;;;;;;8.18;100.00;98918.06;4972070;28;20363;-61
2023/01/12 09:26:49;;;;;;;6.80;1.35;;;;;;;8.21;100.00;98902.34;4978579;28;20054;-60
2023/01/12 09:29:14;;;;;;;3.33;0.80;;;;;;;8.21;100.00;98915.00;4988703;28;20026;-61
2023/01/12 09:31:43;;;;;;;6.80;0.85;;;;;;;8.21;100.00;98902.34;4976316;28;20026;-60
2023/01/12 09:34:08;;;;;;;7.85;0.82;;;;;;;8.34;100.00;98912.50;4988010;28;20018;-60
2023/01/12 09:36:36;;;;;;;5.63;0.47;;;;;;;8.34;100.00;98904.41;4980704;28;20546;-61
2023/01/12 09:39:02;;;;;;;9.07;0.95;;;;;;;8.42;100.00;98890.84;4989270;28;20031;-62
2023/01/12 09:47:36;;;;;;;5.72;0.77;;;;;;;8.73;100.00;98889.78;4989170;28;20037;-61
2023/01/12 09:50:27;;;;;;;3.13;0.60;;;;;;;8.70;100.00;98884.78;4992157;28;20363;-61
2023/01/12 09:53:01;;;;;;;6.57;0.85;;;;;;;8.86;100.00;98887.25;4975934;28;20478;-61
2023/01/12 09:55:38;;;;;;;5.65;0.70;;;;;;;8.86;100.00;98883.72;4974402;28;20026;-62
2023/01/12 09:58:16;;;;;;;6.15;1.15;;;;;;;8.92;100.00;98875.69;4988566;28;20109;-61
2023/01/12 10:00:41;;;;;;;7.07;0.93;;;;;;;8.92;100.00;98874.84;4973194;28;20026;-61
2023/01/12 10:03:34;;;;;;;9.85;0.90;;;;;;;8.92;100.00;98864.88;4976505;28;20149;-61
2023/01/12 10:06:01;;;;;;;3.97;0.68;;;;;;;8.84;100.00;98856.09;4992902;28;20030;-61
2023/01/12 10:08:40;;;;;;;8.32;1.45;;;;;;;8.85;100.00;98855.88;4990227;28;20034;-61
2023/01/12 10:11:25;;;;;;;5.32;0.43;;;;;;;8.92;100.00;98864.06;4976348;28;20449;-61
2023/01/12 10:14:22;;;;;;;5.45;1.00;;;;;;;8.92;100.00;98858.66;4970125;28;20027;-60
2023/01/12 10:17:05;;;;;;;4.97;0.88;;;;;;;8.87;100.00;98861.91;4990666;28;20140;-60
2023/01/12 10:19:47;;;;;;;4.68;0.60;;;;;;;8.88;100.00;98836.63;5004084;28;20030;-60
2023/01/12 10:22:37;;;;;;;2.95;0.80;;;;;;;8.81;100.00;98851.06;4995974;28;20064;-61
2023/01/12 10:25:20;;;;;;;3.15;0.75;;;;;;;8.86;100.00;98844.06;4982275;28;20026;-61
2023/01/12 10:28:04;;;;;;;9.63;0.70;;;;;;;8.91;100.00;98854.31;4990997;28;20536;-62
2023/01/12 10:30:37;;;;;;;6.95;1.05;;;;;;;9.11;100.00;98843.69;4974098;28;20026;-61
2023/01/12 10:33:21;;;;;;;6.28;0.80;;;;;;;9.26;100.00;98833.66;4975446;28;20052;-61
2023/01/12 10:35:51;;;;;;;6.43;0.82;;;;;;;9.40;100.00;98829.19;4972354;28;20080;-62
2023/01/12 10:38:28;;;;;;;;;;;;;;;9.44;100.00;98830.50;4991702;28;20032;-60
2023/01/12 10:41:07;;;;;;;5.07;0.98;;;;;;;9.50;100.00;98828.88;4991621;28;19924;-61
2023/01/12 10:43:33;;;;;;;5.72;0.90;;;;;;;9.43;100.00;98832.38;4991577;28;20410;-61
2023/01/12 10:46:14;;;;;;;4.88;0.70;;;;;;;9.47;100.00;98826.56;4965758;28;20031;-61
2023/01/12 10:48:50;;;;;;;4.57;1.20;;;;;;;9.46;100.00;98824.88;4989446;28;20042;-62
2023/01/12 10:51:23;;;;;;;4.78;0.65;;;;;;;9.57;100.00;98830.59;4991840;28;20061;-62
2023/01/12 10:53:55;;;;;;;7.45;0.80;;;;;;;9.65;100.00;98825.03;4976166;28;20041;-62
2023/01/12 10:56:39;;;;;;;5.43;0.80;;;;;;;9.55;100.00;98823.72;4976080;28;20030;-62
2023/01/12 10:59:18;;;;;;;2.80;0.60;;;;;;;9.63;100.00;98815.47;4974008;28;20113;-62
2023/01/12 11:02:04;;;;;;;6.35;0.63;;;;;;;9.56;100.00;98806.47;4993138;28;20022;-63
2023/01/12 11:04:35;;;;;;;3.95;0.60;;;;;;;9.62;100.00;98803.00;4976323;28;20046;-62
2023/01/12 11:07:00;;;;;;;3.33;0.80;;;;;;;9.73;100.00;98791.63;4969953;28;20032;-63
2023/01/12 11:09:29;;;;;;;4.38;0.90;;;;;;;9.64;100.00;98792.81;4966724;28;20038;-63
2023/01/12 11:12:00;;;;;;;4.78;0.80;;;;;;;9.66;100.00;98791.59;4988333;28;20065;-63
2023/01/12 11:14:30;;;;;;;4.43;0.50;;;;;;;9.69;100.00;98795.75;4972321;28;20054;-62
2023/01/12 11:17:14;;;;;;;5.35;0.75;;;;;;;9.60;100.00;98795.09;4991722;28;20037;-61
2023/01/12 11:19:43;;;;;;;4.10;0.60;;;;;;;9.56;100.00;98798.38;4965810;28;20018;-61
2023/01/12 11:22:26;;;;;;;4.83;0.60;;;;;;;9.53;100.00;98796.06;4974091;28;20030;-61
2023/01/12 11:24:58;;;;;;;5.53;0.80;;;;;;;9.55;100.00;98789.44;4982694;28;20401;-62
2023/01/12 11:27:42;;;;;;;6.28;1.30;;;;;;;9.56;100.00;98784.88;4995984;28;20478;-62
2023/01/12 11:30:17;;;;;;;5.75;1.15;;;;;;;9.58;100.00;98793.63;4975456;28;20065;-62
2023/01/12 11:32:53;;;;;;;4.38;1.02;;;;;;;9.59;100.00;98792.59;4990831;28;20037;-61
2023/01/12 11:35:24;;;;;;;4.65;1.20;;;;;;;9.55;100.00;98794.00;4974713;28;20037;-61
2023/01/12 11:37:54;;;;;;;5.55;0.95;;;;;;;9.53;100.00;98775.28;4992207;28;20038;-62
2023/01/12 11:40:30;;;;;;;4.78;1.27;;;;;;;9.60;100.00;98784.28;4974664;28;20030;-61
2023/01/12 11:45:56;;;;;;;7.28;1.50;;;;;;;9.71;100.00;98784.75;4992350;28;20076;-62
2023/01/12 11:48:34;;;;;;;6.55;1.23;;;;;;;9.69;100.00;98776.84;4992134;28;20145;-62
2023/01/12 11:51:00;;;;;;;3.35;1.10;;;;;;;9.75;100.00;98781.47;4991492;28;20220;-61
2023/01/12 11:53:26;;;;;;;4.80;1.10;;;;;;;9.81;100.00;98780.66;4985363;28;20117;-61
2023/01/12 11:56:09;;;;;;;3.45;0.98;;;;;;;9.82;100.00;98774.25;4990293;28;20490;-61
2023/01/12 11:58:54;;;;;;;7.50;1.63;;;;;;;9.88;100.00;98759.94;4988469;28;20394;-61
2023/01/12 12:01:29;;;;;;;2.90;0.75;;;;;;;10.07;100.00;98762.94;4972245;28;20067;-61
2023/01/12 12:04:16;;;;;;;3.00;0.77;;;;;;;10.31;100.00;98758.91;4974153;28;20441;-63
2023/01/12 12:06:55;;;;;;;1.75;0.55;;;;;;;10.45;100.00;98748.94;4967433;28;20548;-62
2023/01/12 12:10:01;;;;;;;1.83;0.50;;;;;;;10.51;100.00;98745.44;4971941;28;20165;-62
2023/01/12 12:12:38;;;;;;;1.90;0.50;;;;;;;10.78;100.00;98754.44;4968996;28;20390;-53
2023/01/12 12:15:10;;;;;;;4.15;0.90;;;;;;;10.96;100.00;98735.72;4983220;28;20027;-55
2023/01/12 12:17:55;;;;;;;8.88;1.27;;;;;;;11.24;100.00;98739.25;4990869;28;20348;-53
2023/01/12 12:20:46;;;;;;;1.50;0.45;;;;;;;11.38;100.00;98738.22;4958151;28;20038;-54
2023/01/12 12:23:23;;;;;;;4.15;0.90;;;;;;;11.12;100.00;98734.47;4990932;28;20034;-54
2023/01/12 12:26:16;;;;;;;2.22;0.80;;;;;;;10.92;100.00;98733.63;4987832;28;20122;-54
2023/01/12 12:28:49;;;;;;;2.85;0.57;;;;;;;11.14;100.00;98720.72;4956417;28;20034;-62